createdAt,value
2018-01-11T00:00:37.720Z,25.95
2018-01-11T00:03:05.447Z,26.98
2018-01-11T00:05:33.240Z,28.02
2018-01-11T00:08:00.967Z,34.33
2018-01-11T00:10:28.691Z,31.48
2018-01-11T00:12:56.471Z,30.48
2018-01-11T00:15:24.967Z,31.35
2018-01-11T00:17:52.700Z,28.70
2018-01-11T00:20:21.253Z,24.12
2018-01-11T00:22:48.983Z,22.35
2018-01-11T00:25:16.721Z,21.62
2018-01-11T00:27:44.511Z,25.17
2018-01-11T00:30:12.256Z,25.25
2018-01-11T00:32:39.987Z,25.35
2018-01-11T00:35:08.537Z,25.77
2018-01-11T00:37:36.272Z,24.27
2018-01-11T00:40:04.000Z,26.35
2018-01-11T00:42:32.559Z,25.12
2018-01-11T00:45:00.298Z,28.33
2018-01-11T00:47:28.028Z,27.60
2018-01-11T00:49:55.852Z,27.17
2018-01-11T00:52:24.372Z,25.65
2018-01-11T00:54:52.094Z,25.62
2018-01-11T00:57:20.653Z,29.10
2018-01-11T00:59:48.383Z,28.00
2018-01-11T01:02:16.112Z,28.35
2018-01-11T01:04:44.664Z,28.77
2018-01-11T01:07:12.396Z,27.15
2018-01-11T01:09:40.131Z,27.92
2018-01-11T01:12:07.920Z,24.27
2018-01-11T01:14:35.661Z,25.73
2018-01-11T01:17:03.392Z,26.95
2018-01-11T01:19:31.943Z,25.80
2018-01-11T01:21:59.680Z,24.90
2018-01-11T01:24:27.408Z,26.10
2018-01-11T01:26:55.191Z,25.50
2018-01-11T01:29:22.920Z,25.75
2018-01-11T01:31:51.421Z,27.80
2018-01-11T01:34:19.216Z,27.30
2018-01-11T01:36:46.942Z,27.00
2018-01-11T01:39:14.724Z,26.60
2018-01-11T01:41:42.513Z,26.98
2018-01-11T01:44:10.251Z,27.10
2018-01-11T01:46:37.978Z,25.00
2018-01-11T01:49:05.838Z,24.95
2018-01-11T01:51:33.575Z,25.10
2018-01-11T01:54:01.304Z,24.75
2018-01-11T01:56:29.091Z,22.77
2018-01-11T01:58:56.815Z,23.62
2018-01-11T02:01:24.549Z,22.33
2018-01-11T02:03:52.330Z,20.45
2018-01-11T02:06:20.059Z,23.25
2018-01-11T02:08:48.554Z,21.73
2018-01-11T02:11:16.344Z,23.38
2018-01-11T02:13:44.072Z,22.23
2018-01-11T02:16:11.806Z,23.98
2018-01-11T02:18:39.627Z,23.48
2018-01-11T02:21:07.356Z,22.15
2018-01-11T02:23:35.088Z,23.17
2018-01-11T02:26:02.871Z,25.62
2018-01-11T02:28:31.359Z,24.73
2018-01-11T02:30:59.091Z,22.77
2018-01-11T02:33:27.648Z,23.62
2018-01-11T02:35:55.381Z,24.10
2018-01-11T02:38:23.114Z,23.60
2018-01-11T02:40:50.900Z,22.58
2018-01-11T02:43:19.537Z,23.02
2018-01-11T02:45:47.277Z,22.95
2018-01-11T02:48:15.063Z,22.67
2018-01-11T02:50:42.796Z,25.15
2018-01-11T02:53:10.524Z,24.98
2018-01-11T02:55:38.306Z,25.30
2018-01-11T02:58:06.032Z,23.73
2018-01-11T03:00:33.759Z,23.20
2018-01-11T03:03:01.548Z,23.35
2018-01-11T03:05:30.059Z,25.40
2018-01-11T03:07:57.790Z,24.27
2018-01-11T03:10:26.340Z,22.48
2018-01-11T03:12:54.072Z,26.92
2018-01-11T03:15:21.805Z,26.85
2018-01-11T03:17:49.584Z,32.50
2018-01-11T03:20:17.311Z,27.80
2018-01-11T03:22:45.871Z,25.85
2018-01-11T03:25:13.693Z,26.73
2018-01-11T03:27:41.422Z,28.92
2018-01-11T03:30:09.929Z,26.98
2018-01-11T03:32:37.712Z,25.55
2018-01-11T03:35:05.445Z,23.80
2018-01-11T03:37:33.184Z,24.52
2018-01-11T03:40:01.729Z,22.77
2018-01-11T03:42:29.455Z,23.30
2018-01-11T03:44:57.183Z,19.70
2018-01-11T03:47:25.732Z,19.20
2018-01-11T03:49:53.455Z,18.00
2018-01-11T03:52:21.204Z,19.08
2018-01-11T03:54:48.983Z,19.98
2018-01-11T03:57:16.727Z,19.20
2018-01-11T03:59:44.465Z,17.17
2018-01-11T04:02:13.011Z,18.30
2018-01-11T04:04:40.738Z,18.27
2018-01-11T04:07:08.513Z,17.45
2018-01-11T04:09:36.299Z,17.52
2018-01-11T04:12:04.034Z,17.67
2018-01-11T04:14:31.773Z,16.17
2018-01-11T04:16:59.563Z,19.50
2018-01-11T04:19:27.290Z,20.05
2018-01-11T04:21:55.021Z,18.45
2018-01-11T04:24:22.804Z,19.67
2018-01-11T04:26:51.298Z,19.33
2018-01-11T04:29:19.034Z,21.40
2018-01-11T04:31:47.591Z,17.92
2018-01-11T04:34:15.327Z,21.05
2018-01-11T04:36:43.056Z,17.80
2018-01-11T04:39:10.849Z,19.77
2018-01-11T04:41:38.585Z,18.77
2018-01-11T04:44:06.323Z,18.80
2018-01-11T04:46:35.028Z,25.77
2018-01-11T04:49:02.760Z,33.05
2018-01-11T04:51:31.261Z,35.83
2018-01-11T04:53:59.048Z,36.17
2018-01-11T04:56:26.795Z,31.33
2018-01-11T04:58:54.543Z,36.55
2018-01-11T05:01:22.356Z,36.90
2018-01-11T05:03:50.087Z,27.73
2018-01-11T05:06:17.819Z,27.50
2018-01-11T05:08:46.366Z,25.77
2018-01-11T05:11:14.114Z,25.70
2018-01-11T05:13:41.842Z,22.67
2018-01-11T05:16:09.628Z,21.30
2018-01-11T05:18:37.363Z,21.10
2018-01-11T05:21:05.088Z,22.15
2018-01-11T05:23:32.878Z,22.77
2018-01-11T05:26:00.607Z,23.08
2018-01-11T05:28:28.354Z,21.40
2018-01-11T05:30:56.140Z,24.08
2018-01-11T05:33:24.636Z,24.95
2018-01-11T05:35:53.134Z,22.73
2018-01-11T05:38:20.917Z,22.15
2018-01-11T05:40:48.643Z,23.55
2018-01-11T05:43:16.369Z,22.65
2018-01-11T05:45:44.150Z,37.08
2018-01-11T05:48:12.677Z,23.45
2018-01-11T05:50:40.404Z,26.92
2018-01-11T05:53:08.212Z,25.02
2018-01-11T05:55:35.936Z,26.10
2018-01-11T05:58:03.668Z,30.15
2018-01-11T06:00:32.220Z,33.17
2018-01-11T06:02:59.953Z,33.92
2018-01-11T06:05:27.686Z,22.83
2018-01-11T06:07:56.251Z,22.35
2018-01-11T06:10:24.744Z,24.23
2018-01-11T06:12:53.235Z,24.20
2018-01-11T06:15:21.875Z,22.87
2018-01-11T06:17:49.602Z,25.98
2018-01-11T06:20:17.350Z,27.50
2018-01-11T06:22:45.142Z,26.62
2018-01-11T06:25:12.878Z,27.23
2018-01-11T06:27:40.611Z,26.65
2018-01-11T06:30:09.164Z,26.80
2018-01-11T06:32:36.898Z,25.58
2018-01-11T06:35:04.633Z,27.40
2018-01-11T06:37:32.419Z,28.27
2018-01-11T06:40:00.162Z,26.33
2018-01-11T06:42:27.888Z,25.83
2018-01-11T06:44:56.439Z,26.25
2018-01-11T06:47:24.169Z,26.30
2018-01-11T06:49:51.895Z,28.92
2018-01-11T06:52:20.447Z,29.75
2018-01-11T06:54:48.180Z,27.70
2018-01-11T06:57:15.914Z,31.70
2018-01-11T06:59:43.695Z,29.02
2018-01-11T07:02:11.438Z,29.40
2018-01-11T07:04:39.175Z,31.80
2018-01-11T07:07:07.724Z,33.95
2018-01-11T07:09:35.478Z,32.78
2018-01-11T07:12:03.206Z,35.08
2018-01-11T07:14:30.987Z,47.15
2018-01-11T07:16:58.722Z,40.65
2018-01-11T07:19:26.466Z,32.83
2018-01-11T07:21:55.014Z,35.75
2018-01-11T07:24:22.743Z,34.67
2018-01-11T07:26:50.471Z,32.92
2018-01-11T07:29:19.030Z,32.95
2018-01-11T07:31:46.770Z,34.40
2018-01-11T07:34:14.538Z,34.78
2018-01-11T07:36:42.343Z,31.45
2018-01-11T07:39:10.081Z,33.60
2018-01-11T07:41:37.863Z,34.72
2018-01-11T07:44:06.414Z,31.95
2018-01-11T07:46:34.142Z,34.17
2018-01-11T07:49:01.873Z,31.90
2018-01-11T07:51:29.654Z,33.22
2018-01-11T07:53:57.382Z,35.35
2018-01-11T07:56:25.871Z,31.33
2018-01-11T07:58:54.420Z,33.40
2018-01-11T08:01:22.151Z,33.33
2018-01-11T08:03:49.888Z,33.95
2018-01-11T08:06:17.671Z,34.15
2018-01-11T08:08:45.409Z,37.25
2018-01-11T08:11:13.136Z,39.15
2018-01-11T08:13:40.927Z,37.42
2018-01-11T08:16:08.676Z,38.05
2018-01-11T08:18:37.170Z,37.33
2018-01-11T08:21:04.951Z,36.65
2018-01-11T08:23:32.680Z,41.70
2018-01-11T08:26:01.171Z,39.22
2018-01-11T08:28:28.956Z,45.83
2018-01-11T08:30:56.699Z,43.70
2018-01-11T08:33:24.454Z,39.72
2018-01-11T08:35:52.238Z,42.28
2018-01-11T08:38:19.974Z,38.95
2018-01-11T08:40:47.715Z,39.85
2018-01-11T08:43:16.279Z,39.15
2018-01-11T08:45:44.033Z,39.78
2018-01-11T08:48:11.767Z,37.38
2018-01-11T08:50:39.551Z,37.85
2018-01-11T08:53:07.280Z,46.00
2018-01-11T08:55:35.012Z,42.95
2018-01-11T08:58:03.570Z,38.92
2018-01-11T09:00:31.302Z,37.45
2018-01-11T09:02:59.042Z,34.35
2018-01-11T09:05:26.891Z,37.45
2018-01-11T09:07:54.628Z,46.05
2018-01-11T09:10:23.120Z,42.40
2018-01-11T09:12:51.667Z,39.45
2018-01-11T09:15:19.405Z,35.67
2018-01-11T09:17:47.137Z,35.90
2018-01-11T09:20:15.095Z,34.80
2018-01-11T09:22:42.852Z,35.33
2018-01-11T09:25:11.661Z,30.25
2018-01-11T09:27:39.454Z,30.30
2018-01-11T09:30:07.183Z,32.55
2018-01-11T09:32:34.915Z,28.58
2018-01-11T09:35:03.492Z,28.77
2018-01-11T09:37:31.634Z,27.65
2018-01-11T09:39:59.542Z,29.90
2018-01-11T09:42:28.399Z,29.83
2018-01-11T09:44:56.147Z,28.58
2018-01-11T09:47:23.877Z,27.70
2018-01-11T09:49:51.665Z,29.17
2018-01-11T09:52:19.400Z,31.08
2018-01-11T09:54:47.145Z,29.12
2018-01-11T09:57:15.580Z,31.50
2018-01-11T09:59:44.104Z,31.00
2018-01-11T10:02:11.889Z,30.25
2018-01-11T10:04:39.671Z,28.65
2018-01-11T10:07:07.772Z,26.50
2018-01-11T10:09:35.608Z,20.95
2018-01-11T10:12:03.589Z,22.15
2018-01-11T10:14:32.218Z,22.00
2018-01-11T10:16:59.960Z,23.17
2018-01-11T10:19:27.743Z,24.55
2018-01-11T10:21:55.471Z,23.40
2018-01-11T10:24:23.975Z,24.17
2018-01-11T10:26:52.494Z,34.20
2018-01-11T10:29:20.372Z,30.10
2018-01-11T10:31:48.117Z,21.08
2018-01-11T10:34:15.900Z,22.15
2018-01-11T10:36:43.624Z,24.73
2018-01-11T10:39:11.406Z,26.90
2018-01-11T10:41:39.305Z,23.85
2018-01-11T10:44:07.868Z,25.12
2018-01-11T10:46:35.614Z,28.95
2018-01-11T10:49:03.399Z,30.70
2018-01-11T10:51:31.132Z,32.30
2018-01-11T10:53:59.632Z,37.15
2018-01-11T10:56:27.416Z,36.28
2018-01-11T10:58:55.950Z,39.70
2018-01-11T11:01:29.319Z,38.45
2018-01-11T11:03:57.044Z,40.22
2018-01-11T11:06:25.535Z,40.25
2018-01-11T11:08:53.321Z,40.72
2018-01-11T11:11:21.054Z,39.67
2018-01-11T11:13:49.548Z,36.90
2018-01-11T11:16:17.342Z,39.67
2018-01-11T11:18:45.081Z,35.25
2018-01-11T11:21:12.823Z,36.35
2018-01-11T11:23:40.607Z,34.13
2018-01-11T11:26:08.340Z,32.78
2018-01-11T11:28:37.390Z,33.67
2018-01-11T11:31:05.184Z,35.13
2018-01-11T11:33:32.916Z,37.90
2018-01-11T11:36:01.461Z,36.47
2018-01-11T11:38:29.338Z,40.38
2018-01-11T11:40:57.092Z,37.30
2018-01-11T11:43:24.845Z,40.75
2018-01-11T11:45:52.636Z,44.65
2018-01-11T11:48:20.370Z,45.47
2018-01-11T11:50:48.278Z,39.33
2018-01-11T11:53:16.856Z,34.80
2018-01-11T11:55:44.585Z,38.53
2018-01-11T11:58:12.317Z,40.22
2018-01-11T12:00:40.905Z,35.83
2018-01-11T12:03:11.579Z,38.10
2018-01-11T12:05:39.387Z,36.47
2018-01-11T12:08:07.934Z,35.05
2018-01-11T12:10:35.658Z,33.40
2018-01-11T12:13:03.429Z,38.30
2018-01-11T12:15:31.212Z,35.22
2018-01-11T12:17:58.936Z,35.97
2018-01-11T12:20:26.680Z,35.13
2018-01-11T12:22:54.469Z,32.28
2018-01-11T12:25:22.211Z,37.40
2018-01-11T12:27:50.074Z,35.80
2018-01-11T12:30:17.867Z,35.72
2018-01-11T12:32:45.590Z,36.90
2018-01-11T12:35:13.320Z,40.00
2018-01-11T12:37:41.099Z,36.85
2018-01-11T12:40:09.590Z,37.67
2018-01-11T12:42:38.094Z,35.25
2018-01-11T12:45:05.884Z,36.80
2018-01-11T12:47:33.654Z,37.60
2018-01-11T12:50:01.389Z,40.10
2018-01-11T12:52:29.175Z,37.90
2018-01-11T12:54:57.003Z,39.17
2018-01-11T12:57:24.735Z,39.13
2018-01-11T12:59:53.284Z,40.17
2018-01-11T13:02:21.020Z,49.08
2018-01-11T13:04:48.746Z,45.20
2018-01-11T13:07:16.532Z,46.47
2018-01-11T13:09:44.258Z,48.25
2018-01-11T13:12:13.826Z,47.95
2018-01-11T13:14:41.616Z,48.70
2018-01-11T13:17:10.884Z,43.95
2018-01-11T13:19:38.620Z,41.47
2018-01-11T13:22:06.409Z,44.22
2018-01-11T13:24:34.151Z,44.33
2018-01-11T13:27:01.884Z,43.40
2018-01-11T13:29:29.720Z,43.03
2018-01-11T13:31:58.215Z,46.15
2018-01-11T13:34:26.732Z,49.20
2018-01-11T13:36:54.582Z,48.70
2018-01-11T13:39:22.384Z,44.65
2018-01-11T13:41:50.116Z,50.30
2018-01-11T13:44:17.916Z,50.15
2018-01-11T13:46:45.718Z,45.53
2018-01-11T13:49:13.469Z,47.85
2018-01-11T13:51:41.268Z,51.22
2018-01-11T13:54:09.057Z,50.85
2018-01-11T13:56:36.811Z,45.75
2018-01-11T13:59:05.403Z,51.90
2018-01-11T14:01:33.145Z,45.75
2018-01-11T14:04:00.884Z,47.40
2018-01-11T14:06:28.690Z,52.30
2018-01-11T14:08:56.436Z,53.67
2018-01-11T14:11:24.231Z,55.47
2018-01-11T14:13:52.803Z,51.88
2018-01-11T14:16:20.569Z,50.95
2018-01-11T14:18:49.078Z,52.78
2018-01-11T14:21:16.879Z,55.47
2018-01-11T14:23:45.442Z,50.67
2018-01-11T14:26:13.974Z,55.17
2018-01-11T14:28:42.536Z,55.33
2018-01-11T14:31:10.292Z,53.53
2018-01-11T14:33:38.030Z,54.40
2018-01-11T14:36:05.824Z,56.75
2018-01-11T14:38:33.576Z,49.33
2018-01-11T14:41:01.318Z,49.05
2018-01-11T14:43:29.117Z,48.63
2018-01-11T14:45:56.861Z,47.92
2018-01-11T14:48:24.596Z,48.75
2018-01-11T14:50:52.395Z,47.22
2018-01-11T14:53:20.134Z,54.97
2018-01-11T14:55:47.883Z,49.13
2018-01-11T14:58:15.695Z,59.13
2018-01-11T15:00:44.204Z,56.60
2018-01-11T15:03:11.946Z,54.75
2018-01-11T15:05:40.508Z,55.67
2018-01-11T15:08:08.262Z,57.65
2018-01-11T15:10:36.020Z,53.97
2018-01-11T15:13:03.818Z,52.13
2018-01-11T15:15:31.559Z,57.20
2018-01-11T15:18:00.081Z,57.47
2018-01-11T15:20:27.884Z,59.70
2018-01-11T15:22:55.633Z,59.85
2018-01-11T15:25:23.422Z,65.05
2018-01-11T15:27:52.021Z,61.72
2018-01-11T15:30:19.780Z,63.30
2018-01-11T15:32:48.303Z,68.65
2018-01-11T15:35:16.107Z,67.53
2018-01-11T15:37:44.624Z,67.97
2018-01-11T15:40:12.365Z,68.95
2018-01-11T15:42:40.164Z,69.25
2018-01-11T15:45:07.904Z,67.47
2018-01-11T15:47:35.650Z,65.20
2018-01-11T15:50:04.228Z,81.78
2018-01-11T15:52:32.752Z,74.80
2018-01-11T15:55:01.267Z,65.28
2018-01-11T15:57:29.063Z,66.87
2018-01-11T15:59:56.803Z,58.50
2018-01-11T16:02:25.325Z,63.55
2018-01-11T16:04:53.165Z,72.53
2018-01-11T16:07:20.907Z,71.60
2018-01-11T16:09:49.415Z,77.78
2018-01-11T16:12:17.264Z,70.22
2018-01-11T16:14:45.780Z,68.40
2018-01-11T16:17:13.524Z,69.80
2018-01-11T16:19:41.334Z,60.95
2018-01-11T16:22:09.072Z,60.00
2018-01-11T16:24:36.838Z,66.75
2018-01-11T16:27:04.643Z,63.45
2018-01-11T16:29:33.165Z,69.87
2018-01-11T16:32:00.908Z,68.47
2018-01-11T16:34:28.711Z,69.00
2018-01-11T16:36:57.266Z,70.35
2018-01-11T16:39:25.021Z,73.80
2018-01-11T16:41:52.822Z,71.22
2018-01-11T16:44:20.565Z,71.25
2018-01-11T16:46:48.327Z,75.20
2018-01-11T16:49:16.128Z,75.05
2018-01-11T16:51:44.642Z,79.87
2018-01-11T16:54:12.451Z,79.82
2018-01-11T16:56:40.249Z,80.50
2018-01-11T16:59:08.751Z,87.00
2018-01-11T17:01:36.497Z,83.05
2018-01-11T17:04:04.283Z,81.70
2018-01-11T17:06:32.022Z,88.03
2018-01-11T17:08:59.780Z,80.95
2018-01-11T17:11:27.600Z,80.22
2018-01-11T17:13:55.395Z,84.72
2018-01-11T17:16:23.992Z,91.65
2018-01-11T17:18:55.790Z,94.70
2018-01-11T17:21:24.149Z,95.10
2018-01-11T17:23:51.912Z,106.37
2018-01-11T17:26:20.539Z,101.93
2018-01-11T17:28:48.403Z,104.72
2018-01-11T17:31:16.213Z,106.53
2018-01-11T17:33:44.059Z,106.28
2018-01-11T17:36:12.233Z,104.78
2018-01-11T17:38:40.050Z,109.68
2018-01-11T17:41:08.067Z,106.47
2018-01-11T17:43:35.875Z,102.50
2018-01-11T17:46:03.705Z,101.25
2018-01-11T17:48:32.110Z,101.05
2018-01-11T17:50:59.873Z,104.00
2018-01-11T17:53:27.650Z,108.00
2018-01-11T17:55:55.468Z,106.97
2018-01-11T17:58:23.209Z,111.20
2018-01-11T18:00:50.984Z,114.60
2018-01-11T18:03:21.924Z,108.15
2018-01-11T18:05:49.759Z,103.68
2018-01-11T18:08:18.316Z,104.10
2018-01-11T18:10:46.826Z,111.50
2018-01-11T18:13:16.706Z,102.95
2018-01-11T18:15:45.883Z,106.12
2018-01-11T18:18:14.809Z,117.43
2018-01-11T18:20:42.612Z,118.93
2018-01-11T18:23:10.400Z,117.97
2018-01-11T18:25:38.200Z,109.87
2018-01-11T18:28:06.196Z,113.57
2018-01-11T18:30:34.006Z,115.72
2018-01-11T18:33:01.836Z,117.53
2018-01-11T18:35:29.735Z,124.55
2018-01-11T18:37:57.931Z,112.50
2018-01-11T18:40:32.239Z,119.47
2018-01-11T18:43:00.913Z,115.03
2018-01-11T18:45:28.760Z,118.97
2018-01-11T18:47:57.561Z,112.15
2018-01-11T18:50:26.896Z,112.55
2018-01-11T18:52:54.691Z,116.50
2018-01-11T18:55:22.687Z,114.45
2018-01-11T18:57:50.564Z,106.15
2018-01-11T19:00:19.125Z,102.87
2018-01-11T19:02:47.707Z,112.40
2018-01-11T19:05:15.500Z,103.30
2018-01-11T19:07:43.764Z,101.20
2018-01-11T19:10:11.616Z,98.30
2018-01-11T19:12:39.348Z,97.40
2018-01-11T19:15:07.172Z,97.80
2018-01-11T19:17:36.782Z,100.97
2018-01-11T19:20:04.615Z,101.40
2018-01-11T19:22:33.141Z,105.55
2018-01-11T19:25:01.016Z,97.45
2018-01-11T19:27:28.767Z,100.75
2018-01-11T19:29:56.544Z,102.75
2018-01-11T19:32:24.352Z,91.63
2018-01-11T19:34:52.858Z,90.55
2018-01-11T19:37:20.602Z,99.62
2018-01-11T19:39:48.408Z,113.28
2018-01-11T19:42:16.164Z,106.00
2018-01-11T19:44:43.908Z,102.55
2018-01-11T19:47:11.705Z,109.80
2018-01-11T19:49:39.464Z,100.32
2018-01-11T19:52:07.248Z,97.20
2018-01-11T19:54:35.309Z,104.80
2018-01-11T19:57:03.090Z,103.35
2018-01-11T19:59:31.609Z,94.00
2018-01-11T20:01:59.408Z,109.80
2018-01-11T20:04:27.160Z,98.82
2018-01-11T20:06:55.070Z,105.93
2018-01-11T20:09:23.086Z,104.47
2018-01-11T20:11:50.987Z,91.30
2018-01-11T20:14:18.753Z,94.22
2018-01-11T20:16:47.338Z,87.18
2018-01-11T20:19:15.840Z,88.30
2018-01-11T20:21:43.648Z,86.63
2018-01-11T20:24:11.445Z,85.07
2018-01-11T20:26:39.191Z,96.87
2018-01-11T20:29:07.723Z,89.85
2018-01-11T20:31:35.537Z,99.78
2018-01-11T20:34:04.056Z,96.05
2018-01-11T20:36:31.811Z,97.95
2018-01-11T20:38:59.620Z,95.78
2018-01-11T20:41:27.365Z,92.20
2018-01-11T20:43:55.118Z,99.07
2018-01-11T20:46:22.917Z,96.82
2018-01-11T20:48:50.697Z,87.68
2018-01-11T20:51:19.342Z,78.70
2018-01-11T20:53:47.232Z,78.45
2018-01-11T20:56:15.915Z,73.85
2018-01-11T20:58:44.420Z,66.62
2018-01-11T21:01:12.221Z,72.87
2018-01-11T21:03:39.968Z,69.87
2018-01-11T21:06:07.707Z,74.75
2018-01-11T21:08:35.529Z,80.95
2018-01-11T21:11:03.292Z,78.80
2018-01-11T21:13:31.037Z,76.25
2018-01-11T21:15:58.850Z,76.35
2018-01-11T21:18:26.588Z,82.70
2018-01-11T21:20:55.151Z,69.60
2018-01-11T21:23:22.934Z,75.07
2018-01-11T21:25:51.454Z,77.43
2018-01-11T21:28:19.201Z,76.80
2018-01-11T21:30:47.016Z,78.00
2018-01-11T21:33:14.748Z,75.18
2018-01-11T21:35:42.491Z,79.30
2018-01-11T21:38:10.300Z,73.93
2018-01-11T21:40:38.056Z,64.75
2018-01-11T21:43:05.795Z,66.62
2018-01-11T21:45:33.614Z,68.70
2018-01-11T21:48:02.146Z,66.90
2018-01-11T21:50:30.671Z,63.38
2018-01-11T21:52:59.241Z,68.60
2018-01-11T21:55:26.985Z,64.60
2018-01-11T21:57:54.729Z,62.97
2018-01-11T22:00:22.525Z,60.80
2018-01-11T22:02:50.264Z,52.30
2018-01-11T22:05:18.000Z,49.38
2018-01-11T22:07:45.797Z,48.17
2018-01-11T22:10:13.538Z,50.15
2018-01-11T22:12:41.299Z,53.60
2018-01-11T22:15:09.096Z,48.00
2018-01-11T22:17:37.608Z,46.53
2018-01-11T22:20:05.354Z,50.20
2018-01-11T22:22:33.919Z,55.30
2018-01-11T22:25:01.661Z,50.58
2018-01-11T22:27:29.401Z,50.40
2018-01-11T22:29:57.192Z,46.65
2018-01-11T22:32:24.931Z,45.92
2018-01-11T22:34:52.680Z,50.42
2018-01-11T22:37:20.481Z,48.30
2018-01-11T22:39:48.224Z,49.38
2018-01-11T22:42:15.959Z,47.75
2018-01-11T22:44:43.800Z,45.85
2018-01-11T22:47:11.543Z,46.45
2018-01-11T22:49:40.044Z,47.03
2018-01-11T22:52:07.841Z,47.13
2018-01-11T22:54:35.584Z,49.78
2018-01-11T22:57:03.320Z,45.40
2018-01-11T22:59:31.112Z,46.60
2018-01-11T23:01:58.848Z,49.97
2018-01-11T23:04:26.583Z,51.20
2018-01-11T23:06:54.390Z,47.47
2018-01-11T23:09:22.120Z,49.60
2018-01-11T23:11:50.649Z,47.15
2018-01-11T23:14:18.454Z,51.22
2018-01-11T23:16:46.981Z,49.90
2018-01-11T23:19:14.715Z,46.95
2018-01-11T23:21:42.507Z,46.67
2018-01-11T23:24:10.240Z,47.13
2018-01-11T23:26:37.972Z,46.30
2018-01-11T23:29:05.765Z,42.20
2018-01-11T23:31:33.512Z,44.70
2018-01-11T23:34:02.009Z,51.25
2018-01-11T23:36:29.795Z,48.65
2018-01-11T23:38:57.531Z,50.05
2018-01-11T23:41:25.285Z,50.85
2018-01-11T23:43:53.075Z,48.33
2018-01-11T23:46:20.820Z,49.47
2018-01-11T23:48:48.556Z,47.33
2018-01-11T23:51:17.113Z,47.25
2018-01-11T23:53:44.852Z,56.97
2018-01-11T23:56:12.591Z,48.35
2018-01-11T23:58:40.394Z,49.95
